Time;durP1;ratioP1;P1;durP2;ratioP2;P2;SDS_P1;SDS_P2;PMS_P1;PMS_P2;Temp;Humidity;BMP_temperature;BMP_pressure;BME280_temperature;BME280_humidity;BME280_pressure;Samples;Min_cycle;Max_cycle;Signal;HPM_P1;HPM_P2
2022/09/06 00:02:25;;;;;;;9.32;1.60;;;;;;;;;;5039952;28;20037;-57
2022/09/06 00:04:51;;;;;;;4.15;1.40;;;;;;;;;;5033980;28;20109;-59
2022/09/06 00:07:17;;;;;;;2.08;1.30;;;;;;;;;;5034847;28;20025;-58
2022/09/06 00:09:43;;;;;;;2.80;1.55;;;;;;;;;;5041530;28;20095;-58
2022/09/06 00:12:09;;;;;;;4.18;1.48;;;;;;;;;;5035248;28;20494;-59
2022/09/06 00:14:35;;;;;;;2.67;1.30;;;;;;;;;;5037951;28;20035;-59
2022/09/06 00:17:01;;;;;;;4.80;1.40;;;;;;;;;;5050628;28;20461;-58
2022/09/06 00:19:27;;;;;;;4.40;1.55;;;;;;;;;;5039097;28;20415;-58
2022/09/06 00:21:53;;;;;;;7.13;1.40;;;;;;;;;;5037210;28;20030;-59
2022/09/06 00:24:19;;;;;;;2.47;1.38;;;;;;;;;;5032510;28;20075;-59
2022/09/06 00:26:45;;;;;;;5.75;1.20;;;;;;;;;;5029287;28;20096;-59
2022/09/06 00:29:11;;;;;;;2.72;1.10;;;;;;;;;;5026763;28;20040;-59
2022/09/06 00:31:37;;;;;;;4.88;1.23;;;;;;;;;;5037202;28;20451;-57
2022/09/06 00:34:03;;;;;;;2.15;1.23;;;;;;;;;;5038484;28;20366;-57
2022/09/06 00:36:29;;;;;;;5.28;1.40;;;;;;;;;;5040945;28;20041;-58
2022/09/06 00:38:56;;;;;;;2.47;1.20;;;;;;;;;;5036012;28;20026;-59
2022/09/06 00:41:22;;;;;;;3.38;1.45;;;;;;;;;;5019984;28;20073;-57
2022/09/06 00:43:47;;;;;;;3.17;1.10;;;;;;;;;;5027347;28;20030;-59
2022/09/06 00:46:18;;;;;;;4.35;1.30;;;;;;;;;;5032776;28;20029;-60
2022/09/06 00:48:46;;;;;;;2.45;0.95;;;;;;;;;;5043028;28;20025;-59
2022/09/06 00:51:14;;;;;;;8.07;1.38;;;;;;;;;;5025632;28;20515;-58
2022/09/06 00:53:40;;;;;;;6.53;1.63;;;;;;;;;;5021960;28;20410;-57
2022/09/06 00:56:06;;;;;;;2.00;1.20;;;;;;;;;;5029903;28;20034;-58
2022/09/06 00:58:33;;;;;;;1.90;1.23;;;;;;;;;;5035467;28;20576;-57
2022/09/06 01:00:59;;;;;;;5.15;1.00;;;;;;;;;;5040782;28;20018;-57
2022/09/06 01:03:25;;;;;;;3.38;1.10;;;;;;;;;;5035730;28;20033;-59
2022/09/06 01:06:10;;;;;;;3.67;1.10;;;;;;;;;;5033930;28;20030;-58
2022/09/06 01:08:48;;;;;;;4.82;0.90;;;;;;;;;;5043756;28;20082;-59
2022/09/06 01:11:20;;;;;;;3.63;1.00;;;;;;;;;;5039036;28;20106;-59
2022/09/06 01:13:52;;;;;;;2.05;0.95;;;;;;;;;;5037926;28;20020;-58
2022/09/06 01:16:35;;;;;;;4.38;1.23;;;;;;;;;;5036594;28;20021;-58
2022/09/06 01:19:20;;;;;;;2.45;0.95;;;;;;;;;;5034785;28;20033;-58
2022/09/06 01:22:02;;;;;;;3.20;1.20;;;;;;;;;;5025475;28;20034;-58
2022/09/06 01:24:28;;;;;;;3.63;1.10;;;;;;;;;;5034081;28;20021;-57
2022/09/06 01:27:20;;;;;;;2.83;0.90;;;;;;;;;;5029537;28;20052;-58
2022/09/06 01:29:46;;;;;;;2.42;0.98;;;;;;;;;;5024219;28;20068;-59
2022/09/06 01:32:28;;;;;;;1.33;0.85;;;;;;;;;;5038355;28;20480;-58
2022/09/06 01:34:58;;;;;;;3.72;1.15;;;;;;;;;;5032165;28;20128;-58
2022/09/06 01:37:24;;;;;;;1.83;0.80;;;;;;;;;;5021723;28;20493;-59
2022/09/06 01:39:50;;;;;;;3.03;0.80;;;;;;;;;;5033059;28;20469;-59
2022/09/06 01:42:22;;;;;;;2.95;0.88;;;;;;;;;;5034827;28;20376;-58
2022/09/06 01:44:53;;;;;;;4.03;0.75;;;;;;;;;;5032977;28;20113;-58
2022/09/06 01:47:19;;;;;;;5.53;1.27;;;;;;;;;;5021925;28;20030;-58
2022/09/06 01:49:57;;;;;;;10.20;0.90;;;;;;;;;;5028658;28;20086;-58
2022/09/06 01:52:32;;;;;;;4.63;0.88;;;;;;;;;;5034548;28;20034;-59
2022/09/06 01:55:16;;;;;;;1.27;0.70;;;;;;;;;;5027500;28;20056;-59
2022/09/06 01:57:45;;;;;;;5.60;1.08;;;;;;;;;;5025186;28;20409;-58
2022/09/06 02:00:12;;;;;;;1.60;0.65;;;;;;;;;;5036359;28;20029;-61
2022/09/06 02:02:38;;;;;;;3.00;1.00;;;;;;;;;;5032422;28;20503;-58
2022/09/06 02:05:24;;;;;;;3.65;0.70;;;;;;;;;;5027214;28;20026;-58
2022/09/06 02:07:52;;;;;;;2.47;0.75;;;;;;;;;;5034181;28;20037;-59
2022/09/06 02:10:23;;;;;;;5.25;1.10;;;;;;;;;;5039847;28;20034;-59
2022/09/06 02:12:51;;;;;;;3.80;1.00;;;;;;;;;;5023603;28;20038;-59
2022/09/06 02:15:22;;;;;;;2.30;0.82;;;;;;;;;;5031815;28;20030;-57
2022/09/06 02:17:52;;;;;;;2.85;0.95;;;;;;;;;;5029450;28;20086;-58
2022/09/06 02:20:20;;;;;;;4.20;1.35;;;;;;;;;;5028784;28;20061;-58
2022/09/06 02:22:47;;;;;;;4.45;0.80;;;;;;;;;;5029594;28;20029;-58
2022/09/06 02:25:18;;;;;;;2.67;1.00;;;;;;;;;;5028736;28;20029;-59
2022/09/06 02:27:45;;;;;;;1.88;0.80;;;;;;;;;;5037254;28;20104;-61
2022/09/06 02:30:11;;;;;;;5.07;1.10;;;;;;;;;;5032636;28;20388;-58
2022/09/06 02:32:39;;;;;;;3.25;0.77;;;;;;;;;;5030103;28;20033;-59
2022/09/06 02:35:08;;;;;;;2.75;0.80;;;;;;;;;;5040621;28;20075;-60
2022/09/06 02:37:34;;;;;;;1.48;0.88;;;;;;;;;;5022572;28;20029;-59
2022/09/06 02:40:00;;;;;;;1.63;0.85;;;;;;;;;;5029333;28;20036;-58
2022/09/06 02:42:26;;;;;;;1.27;0.82;;;;;;;;;;5022607;28;20026;-58
2022/09/06 02:44:52;;;;;;;1.98;1.15;;;;;;;;;;5019022;28;20389;-59
2022/09/06 02:47:18;;;;;;;1.88;0.80;;;;;;;;;;5037817;28;20029;-59
2022/09/06 02:49:44;;;;;;;2.50;0.95;;;;;;;;;;5029537;28;20029;-58
2022/09/06 02:52:10;;;;;;;2.30;0.82;;;;;;;;;;5042014;28;20094;-58
2022/09/06 02:54:36;;;;;;;3.08;1.05;;;;;;;;;;5030674;28;20021;-58
2022/09/06 02:57:02;;;;;;;4.10;1.00;;;;;;;;;;5030445;28;20044;-58
2022/09/06 02:59:28;;;;;;;3.60;1.08;;;;;;;;;;5026352;28;20042;-57
2022/09/06 03:01:54;;;;;;;5.03;1.02;;;;;;;;;;5013388;28;20642;-59
2022/09/06 03:04:20;;;;;;;6.25;1.13;;;;;;;;;;5029673;28;20525;-58
2022/09/06 03:06:46;;;;;;;3.97;1.15;;;;;;;;;;5032306;28;20017;-59
2022/09/06 03:09:12;;;;;;;2.67;1.00;;;;;;;;;;5035663;28;20029;-59
2022/09/06 03:11:38;;;;;;;3.80;1.05;;;;;;;;;;5020406;28;20030;-58
2022/09/06 03:14:04;;;;;;;2.45;0.90;;;;;;;;;;5033925;28;20075;-57
2022/09/06 03:16:30;;;;;;;3.45;0.88;;;;;;;;;;5033513;28;20417;-57
2022/09/06 03:18:56;;;;;;;3.25;0.90;;;;;;;;;;5031655;28;20083;-58
2022/09/06 03:21:22;;;;;;;3.15;1.00;;;;;;;;;;5026936;28;20028;-57
2022/09/06 03:23:48;;;;;;;2.35;0.90;;;;;;;;;;5018837;28;20366;-57
2022/09/06 03:26:14;;;;;;;4.05;0.95;;;;;;;;;;5025028;28;20030;-58
2022/09/06 03:28:41;;;;;;;3.42;0.77;;;;;;;;;;5031906;28;20026;-57
2022/09/06 03:31:07;;;;;;;2.85;0.90;;;;;;;;;;5035927;28;20026;-58
2022/09/06 03:33:33;;;;;;;6.15;1.00;;;;;;;;;;5042710;28;20460;-58
2022/09/06 03:36:00;;;;;;;4.50;1.00;;;;;;;;;;5041164;28;20029;-59
2022/09/06 03:38:27;;;;;;;2.97;1.08;;;;;;;;;;5027333;28;20038;-58
2022/09/06 03:40:54;;;;;;;4.63;1.27;;;;;;;;;;5032948;28;20068;-58
2022/09/06 03:43:20;;;;;;;2.75;1.08;;;;;;;;;;5036847;28;20026;-58
2022/09/06 03:45:47;;;;;;;2.85;1.00;;;;;;;;;;5031842;28;20027;-58
2022/09/06 03:48:13;;;;;;;2.10;0.80;;;;;;;;;;5033024;28;20037;-57
2022/09/06 03:50:44;;;;;;;3.40;1.10;;;;;;;;;;5042714;28;20071;-59
2022/09/06 03:53:09;;;;;;;4.95;0.65;;;;;;;;;;5040584;28;20033;-59
2022/09/06 03:55:35;;;;;;;8.63;1.20;;;;;;;;;;5038643;28;20033;-58
2022/09/06 03:58:01;;;;;;;4.72;1.17;;;;;;;;;;5031054;28;20037;-58
2022/09/06 04:00:27;;;;;;;5.15;0.98;;;;;;;;;;5035111;28;20405;-58
2022/09/06 04:02:53;;;;;;;2.78;0.90;;;;;;;;;;5028720;28;20386;-58
2022/09/06 04:05:19;;;;;;;2.55;1.33;;;;;;;;;;5034971;28;20029;-59
2022/09/06 04:07:45;;;;;;;1.55;0.90;;;;;;;;;;5035490;28;20032;-57
2022/09/06 04:10:11;;;;;;;3.63;1.00;;;;;;;;;;5034497;28;20033;-60
2022/09/06 04:12:37;;;;;;;2.03;0.75;;;;;;;;;;5032479;28;20030;-57
2022/09/06 04:15:03;;;;;;;2.47;1.15;;;;;;;;;;5034135;28;20025;-58
2022/09/06 04:17:29;;;;;;;4.57;0.90;;;;;;;;;;5024493;28;20044;-58
2022/09/06 04:19:55;;;;;;;2.03;0.80;;;;;;;;;;5023417;28;20477;-59
2022/09/06 04:22:21;;;;;;;2.35;0.90;;;;;;;;;;5031538;28;20025;-58
2022/09/06 04:24:47;;;;;;;2.42;1.00;;;;;;;;;;5033526;28;20048;-58
2022/09/06 04:27:13;;;;;;;6.45;0.90;;;;;;;;;;5022390;28;20029;-59
2022/09/06 04:29:39;;;;;;;6.00;1.20;;;;;;;;;;5036733;28;20528;-57
2022/09/06 04:32:05;;;;;;;2.97;1.33;;;;;;;;;;5030992;28;20393;-58
2022/09/06 04:34:32;;;;;;;5.80;1.23;;;;;;;;;;5031396;28;20026;-58
2022/09/06 04:36:58;;;;;;;2.28;1.10;;;;;;;;;;5024345;28;20488;-58
2022/09/06 04:39:23;;;;;;;2.80;1.00;;;;;;;;;;5024551;28;20033;-58
2022/09/06 04:41:49;;;;;;;2.90;1.20;;;;;;;;;;5029107;28;20044;-57
2022/09/06 04:44:15;;;;;;;3.40;1.05;;;;;;;;;;5025608;28;20427;-58
2022/09/06 04:46:42;;;;;;;5.72;1.65;;;;;;;;;;5028911;28;20025;-58
2022/09/06 04:49:08;;;;;;;1.58;0.77;;;;;;;;;;5034064;28;20049;-60
2022/09/06 04:51:34;;;;;;;3.17;1.10;;;;;;;;;;5022057;28;20034;-59
2022/09/06 04:54:00;;;;;;;2.55;1.08;;;;;;;;;;5043267;28;20091;-59
2022/09/06 04:56:26;;;;;;;2.55;0.93;;;;;;;;;;5031398;28;20033;-59
2022/09/06 04:58:53;;;;;;;4.38;1.00;;;;;;;;;;5031507;28;20033;-58
2022/09/06 05:01:19;;;;;;;5.82;1.35;;;;;;;;;;5024970;28;20083;-59
2022/09/06 05:03:45;;;;;;;3.53;1.10;;;;;;;;;;5032194;28;20524;-58
2022/09/06 05:06:29;;;;;;;3.55;1.08;;;;;;;;;;5026592;28;20056;-57
2022/09/06 05:08:55;;;;;;;2.83;1.00;;;;;;;;;;5028780;28;20095;-58
2022/09/06 05:11:21;;;;;;;3.58;1.08;;;;;;;;;;5029966;28;20033;-57
2022/09/06 05:13:48;;;;;;;1.42;1.10;;;;;;;;;;5031808;28;20555;-59
2022/09/06 05:16:14;;;;;;;1.73;0.90;;;;;;;;;;5024587;28;20083;-59
2022/09/06 05:18:43;;;;;;;1.70;1.02;;;;;;;;;;5031433;28;20037;-58
2022/09/06 05:21:09;;;;;;;3.15;1.10;;;;;;;;;;5030728;28;20112;-59
2022/09/06 05:23:35;;;;;;;13.27;1.17;;;;;;;;;;5018143;28;20445;-57
2022/09/06 05:26:02;;;;;;;2.85;1.15;;;;;;;;;;5027810;28;20384;-59
2022/09/06 05:28:28;;;;;;;7.38;1.40;;;;;;;;;;5020927;28;20095;-58
2022/09/06 05:31:04;;;;;;;2.35;1.30;;;;;;;;;;5028758;28;20432;-58
2022/09/06 05:33:30;;;;;;;3.25;1.40;;;;;;;;;;5030862;28;20045;-59
2022/09/06 05:35:55;;;;;;;2.95;0.93;;;;;;;;;;5026637;28;20037;-58
2022/09/06 05:38:22;;;;;;;2.40;0.85;;;;;;;;;;5031300;28;20029;-58
2022/09/06 05:40:48;;;;;;;2.38;1.33;;;;;;;;;;5027836;28;20302;-58
2022/09/06 05:43:14;;;;;;;3.60;1.20;;;;;;;;;;5029204;28;20025;-58
2022/09/06 05:45:40;;;;;;;3.38;1.08;;;;;;;;;;5025479;28;20033;-58
2022/09/06 05:48:07;;;;;;;2.72;1.40;;;;;;;;;;5025385;28;20030;-59
2022/09/06 05:50:33;;;;;;;5.60;0.93;;;;;;;;;;5029548;28;20033;-60
2022/09/06 05:52:59;;;;;;;2.08;1.02;;;;;;;;;;5028109;28;20037;-57
2022/09/06 05:55:25;;;;;;;2.65;1.02;;;;;;;;;;5033197;28;20084;-58
2022/09/06 05:57:51;;;;;;;2.78;1.08;;;;;;;;;;5020935;28;20098;-59
2022/09/06 06:00:17;;;;;;;1.88;0.82;;;;;;;;;;5031136;28;20893;-57
2022/09/06 06:02:45;;;;;;;4.32;1.38;;;;;;;;;;5028763;28;20017;-58
2022/09/06 06:05:11;;;;;;;2.90;1.13;;;;;;;;;;5031614;28;20189;-58
2022/09/06 06:07:37;;;;;;;4.78;1.13;;;;;;;;;;5024083;28;20037;-59
2022/09/06 06:10:03;;;;;;;4.55;1.48;;;;;;;;;;5026080;28;20021;-58
2022/09/06 06:12:29;;;;;;;4.32;1.65;;;;;;;;;;5032709;28;20029;-59
2022/09/06 06:14:55;;;;;;;2.40;0.95;;;;;;;;;;5029170;28;20463;-60
2022/09/06 06:17:21;;;;;;;2.85;1.05;;;;;;;;;;5027961;28;20060;-57
2022/09/06 06:19:47;;;;;;;3.70;1.30;;;;;;;;;;5031272;28;20096;-57
2022/09/06 06:22:13;;;;;;;4.13;1.15;;;;;;;;;;5025026;28;20033;-59
2022/09/06 06:24:39;;;;;;;5.25;1.17;;;;;;;;;;5026979;28;20068;-58
2022/09/06 06:27:05;;;;;;;3.40;1.30;;;;;;;;;;5027651;28;20045;-58
2022/09/06 06:29:31;;;;;;;3.53;1.40;;;;;;;;;;5027033;28;20082;-60
2022/09/06 06:31:57;;;;;;;9.65;1.17;;;;;;;;;;5030120;28;20367;-58
2022/09/06 06:34:23;;;;;;;2.40;1.25;;;;;;;;;;5028927;28;20079;-58
2022/09/06 06:36:49;;;;;;;3.25;1.10;;;;;;;;;;5024213;28;20084;-59
2022/09/06 06:39:15;;;;;;;2.42;0.88;;;;;;;;;;5031101;28;20041;-58
2022/09/06 06:41:41;;;;;;;3.70;1.23;;;;;;;;;;5023092;28;20057;-58
2022/09/06 06:44:07;;;;;;;9.80;1.40;;;;;;;;;;5042942;28;20075;-61
2022/09/06 06:46:37;;;;;;;4.65;1.13;;;;;;;;;;5016548;28;20037;-58
2022/09/06 06:49:03;;;;;;;2.00;1.10;;;;;;;;;;5024182;28;20032;-59
2022/09/06 06:51:30;;;;;;;5.70;1.30;;;;;;;;;;5030157;28;20111;-57
2022/09/06 06:53:57;;;;;;;5.55;1.20;;;;;;;;;;5021017;28;20040;-58
2022/09/06 06:56:31;;;;;;;3.85;1.30;;;;;;;;;;5029808;28;20022;-58
2022/09/06 06:58:58;;;;;;;1.92;0.85;;;;;;;;;;5029687;28;20047;-58
2022/09/06 07:01:25;;;;;;;6.75;1.10;;;;;;;;;;5028088;28;20033;-59
2022/09/06 07:03:51;;;;;;;4.70;1.00;;;;;;;;;;5014063;28;20018;-59
2022/09/06 07:06:18;;;;;;;2.60;1.10;;;;;;;;;;5027742;28;20046;-59
2022/09/06 07:08:44;;;;;;;1.90;1.15;;;;;;;;;;5023081;28;20022;-58
2022/09/06 07:11:11;;;;;;;2.70;1.13;;;;;;;;;;5024363;28;20033;-58
2022/09/06 07:13:37;;;;;;;3.85;1.35;;;;;;;;;;5028013;28;20029;-58
2022/09/06 07:16:17;;;;;;;5.22;1.17;;;;;;;;;;5044558;28;20101;-58
2022/09/06 07:18:44;;;;;;;2.65;1.40;;;;;;;;;;5023130;28;20028;-58
2022/09/06 07:21:11;;;;;;;2.88;0.95;;;;;;;;;;5017278;28;20026;-59
2022/09/06 07:23:37;;;;;;;5.47;1.27;;;;;;;;;;5025324;28;20030;-59
2022/09/06 07:26:03;;;;;;;7.03;1.27;;;;;;;;;;5013234;28;20033;-58
2022/09/06 07:28:30;;;;;;;5.65;1.00;;;;;;;;;;5021587;28;20112;-60
2022/09/06 07:30:56;;;;;;;6.72;1.63;;;;;;;;;;5015017;28;20044;-59
2022/09/06 07:33:22;;;;;;;6.20;1.30;;;;;;;;;;5017401;28;20616;-59
2022/09/06 07:35:55;;;;;;;5.82;1.58;;;;;;;;;;5026358;28;20097;-58
2022/09/06 07:38:21;;;;;;;5.05;1.42;;;;;;;;;;5030080;28;20033;-57
2022/09/06 07:40:53;;;;;;;3.97;1.13;;;;;;;;;;5028188;28;20032;-60
2022/09/06 07:43:19;;;;;;;8.13;1.30;;;;;;;;;;5021421;28;20527;-57
2022/09/06 07:45:45;;;;;;;4.55;1.80;;;;;;;;;;5026332;28;20033;-57
2022/09/06 07:48:10;;;;;;;3.42;1.58;;;;;;;;;;5026448;28;20113;-58
2022/09/06 07:50:36;;;;;;;5.15;1.63;;;;;;;;;;5029204;28;20469;-59
2022/09/06 07:53:09;;;;;;;5.53;1.80;;;;;;;;;;5023612;28;20037;-59
2022/09/06 07:55:35;;;;;;;4.22;1.90;;;;;;;;;;5020235;28;20034;-59
2022/09/06 07:58:01;;;;;;;7.85;2.33;;;;;;;;;;5032075;28;20042;-59
2022/09/06 08:00:27;;;;;;;4.30;1.92;;;;;;;;;;5026869;28;20069;-59
2022/09/06 08:02:53;;;;;;;8.15;2.30;;;;;;;;;;5015624;28;20026;-58
2022/09/06 08:05:19;;;;;;;6.00;2.75;;;;;;;;;;5025549;28;20466;-59
2022/09/06 08:07:45;;;;;;;5.93;2.15;;;;;;;;;;5022338;28;20105;-57
2022/09/06 08:10:11;;;;;;;7.78;2.85;;;;;;;;;;5012031;28;20067;-58
2022/09/06 08:12:37;;;;;;;5.35;1.83;;;;;;;;;;5034233;28;20029;-61
2022/09/06 08:15:03;;;;;;;4.60;1.83;;;;;;;;;;5035097;28;20029;-59
2022/09/06 08:17:34;;;;;;;6.03;1.90;;;;;;;;;;5037160;28;20147;-58
2022/09/06 08:20:00;;;;;;;3.97;1.67;;;;;;;;;;5032520;28;20029;-58
2022/09/06 08:22:26;;;;;;;5.32;2.05;;;;;;;;;;5031208;28;20033;-59
2022/09/06 08:24:52;;;;;;;4.53;1.70;;;;;;;;;;5048014;28;20025;-58
2022/09/06 08:27:18;;;;;;;2.28;1.42;;;;;;;;;;5023584;28;20072;-58
2022/09/06 08:29:44;;;;;;;4.97;1.50;;;;;;;;;;5030916;28;20033;-58
2022/09/06 08:32:10;;;;;;;5.50;1.48;;;;;;;;;;5025885;28;20030;-58
2022/09/06 08:34:36;;;;;;;3.67;1.60;;;;;;;;;;5015004;28;20488;-58
2022/09/06 08:37:02;;;;;;;11.13;1.85;;;;;;;;;;5026525;28;20066;-58
2022/09/06 08:39:28;;;;;;;9.77;2.85;;;;;;;;;;5032911;28;20063;-57
2022/09/06 08:41:54;;;;;;;3.40;1.70;;;;;;;;;;5032152;28;20029;-58
2022/09/06 08:44:23;;;;;;;5.00;1.77;;;;;;;;;;5026956;28;20044;-57
2022/09/06 08:47:08;;;;;;;7.82;2.00;;;;;;;;;;5017159;28;20474;-57
2022/09/06 08:49:39;;;;;;;7.05;1.55;;;;;;;;;;5025017;28;20037;-59
2022/09/06 08:52:11;;;;;;;5.65;1.83;;;;;;;;;;5032432;28;20033;-57
2022/09/06 08:54:43;;;;;;;3.53;1.67;;;;;;;;;;5034091;28;20032;-57
2022/09/06 08:57:41;;;;;;;8.75;2.00;;;;;;;;;;5033914;28;20049;-58
2022/09/06 09:00:12;;;;;;;15.02;2.42;;;;;;;;;;5014303;28;20411;-58
2022/09/06 09:03:01;;;;;;;10.48;2.55;;;;;;;;;;5034127;28;20033;-58
2022/09/06 09:05:29;;;;;;;4.93;1.98;;;;;;;;;;5030967;28;20075;-58
2022/09/06 09:08:07;;;;;;;4.65;1.90;;;;;;;;;;5029401;28;20038;-58
2022/09/06 09:10:41;;;;;;;9.82;2.10;;;;;;;;;;5022367;28;20040;-58
2022/09/06 09:13:08;;;;;;;3.35;1.95;;;;;;;;;;5033658;28;20025;-57
2022/09/06 09:15:36;;;;;;;3.58;1.95;;;;;;;;;;5033678;28;20366;-58
2022/09/06 09:18:03;;;;;;;5.35;2.10;;;;;;;;;;5023603;28;20021;-58
2022/09/06 09:20:29;;;;;;;4.40;2.10;;;;;;;;;;5022066;28;20044;-58
2022/09/06 09:22:55;;;;;;;11.80;2.25;;;;;;;;;;5026825;28;20117;-58
2022/09/06 09:25:22;;;;;;;4.25;1.98;;;;;;;;;;5032858;28;20029;-57
2022/09/06 09:27:56;;;;;;;6.80;2.20;;;;;;;;;;5020818;28;20029;-57
2022/09/06 09:30:22;;;;;;;3.45;2.03;;;;;;;;;;5028242;28;20113;-59
2022/09/06 09:32:48;;;;;;;5.10;2.50;;;;;;;;;;5026636;28;20658;-58
2022/09/06 09:35:16;;;;;;;6.35;2.35;;;;;;;;;;5032886;28;20116;-58
2022/09/06 09:37:42;;;;;;;6.10;2.13;;;;;;;;;;5032122;28;20022;-58
2022/09/06 09:40:28;;;;;;;8.85;2.13;;;;;;;;;;5028562;28;20033;-57
2022/09/06 09:42:56;;;;;;;10.75;2.50;;;;;;;;;;5031374;28;20673;-58
2022/09/06 09:45:27;;;;;;;5.00;2.38;;;;;;;;;;5033175;28;20021;-57
2022/09/06 09:47:53;;;;;;;5.13;2.05;;;;;;;;;;5030494;28;20108;-58
2022/09/06 09:50:33;;;;;;;7.63;2.00;;;;;;;;;;5019978;28;20175;-58
2022/09/06 09:53:13;;;;;;;4.15;1.95;;;;;;;;;;5032816;28;20099;-57
2022/09/06 09:55:39;;;;;;;12.73;2.30;;;;;;;;;;5030695;28;20033;-59
2022/09/06 09:58:06;;;;;;;10.48;2.42;;;;;;;;;;5030142;28;20488;-58
2022/09/06 10:00:41;;;;;;;5.50;1.98;;;;;;;;;;5030483;28;20111;-57
2022/09/06 10:03:18;;;;;;;6.60;2.42;;;;;;;;;;5032683;28;20029;-59
2022/09/06 10:05:54;;;;;;;4.13;2.00;;;;;;;;;;5032747;28;20021;-58
2022/09/06 10:08:23;;;;;;;5.30;2.00;;;;;;;;;;5032738;28;20454;-57
2022/09/06 10:10:49;;;;;;;15.30;1.98;;;;;;;;;;5031945;28;20025;-59
2022/09/06 10:13:21;;;;;;;3.80;2.08;;;;;;;;;;5028849;28;20044;-59
2022/09/06 10:15:47;;;;;;;3.58;1.55;;;;;;;;;;5027370;28;20029;-58
2022/09/06 10:18:17;;;;;;;4.75;1.75;;;;;;;;;;5032509;28;20030;-58
2022/09/06 10:21:02;;;;;;;7.05;2.10;;;;;;;;;;5022079;28;20053;-57
2022/09/06 10:23:28;;;;;;;5.10;1.95;;;;;;;;;;5015852;28;20646;-58
2022/09/06 10:26:01;;;;;;;4.53;1.80;;;;;;;;;;5027895;28;20025;-57
2022/09/06 10:28:29;;;;;;;5.75;2.10;;;;;;;;;;5030763;28;20083;-58
2022/09/06 10:31:02;;;;;;;3.90;1.70;;;;;;;;;;5031589;28;20022;-58
2022/09/06 10:33:39;;;;;;;6.97;2.05;;;;;;;;;;5032033;28;20033;-59
2022/09/06 10:36:05;;;;;;;5.35;2.00;;;;;;;;;;5024056;28;20100;-57
2022/09/06 10:38:42;;;;;;;5.18;2.20;;;;;;;;;;5029060;28;20649;-58
2022/09/06 10:41:18;;;;;;;6.55;2.38;;;;;;;;;;5024674;28;20037;-58
2022/09/06 10:43:50;;;;;;;4.32;2.03;;;;;;;;;;5015177;28;20033;-59
2022/09/06 10:46:20;;;;;;;9.55;2.22;;;;;;;;;;5026863;28;20099;-58
2022/09/06 10:48:46;;;;;;;6.43;2.20;;;;;;;;;;5031505;28;20053;-59
2022/09/06 10:51:19;;;;;;;6.38;2.20;;;;;;;;;;5023823;28;21649;-58
2022/09/06 10:53:48;;;;;;;4.40;2.17;;;;;;;;;;5018239;28;20026;-57
2022/09/06 10:56:33;;;;;;;4.78;2.28;;;;;;;;;;5020308;28;20469;-57
2022/09/06 10:58:59;;;;;;;5.38;2.13;;;;;;;;;;5026574;28;20058;-58
2022/09/06 11:01:34;;;;;;;4.35;2.13;;;;;;;;;;5024966;28;20036;-58
2022/09/06 11:04:00;;;;;;;4.63;2.05;;;;;;;;;;5029927;28;20037;-59
2022/09/06 11:06:33;;;;;;;3.42;2.10;;;;;;;;;;5031733;28;20041;-59
2022/09/06 11:08:59;;;;;;;;;;;;;;;;;;5022719;28;20030;-59
2022/09/06 11:11:34;;;;;;;7.38;2.90;;;;;;;;;;5031282;28;19951;-59
2022/09/06 11:14:04;;;;;;;5.75;2.30;;;;;;;;;;5019294;28;20075;-60
2022/09/06 11:16:38;;;;;;;9.45;2.47;;;;;;;;;;5029756;28;20659;-59
2022/09/06 11:19:08;;;;;;;8.10;2.60;;;;;;;;;;5031377;28;20460;-59
2022/09/06 11:21:34;;;;;;;4.50;2.40;;;;;;;;;;5030788;28;20030;-59
2022/09/06 11:24:00;;;;;;;7.72;2.88;;;;;;;;;;5026801;28;20053;-57
2022/09/06 11:26:35;;;;;;;4.05;2.28;;;;;;;;;;5027137;28;20592;-57
2022/09/06 11:29:03;;;;;;;6.63;2.53;;;;;;;;;;5030537;28;20052;-59
2022/09/06 11:31:31;;;;;;;8.55;2.58;;;;;;;;;;5028985;28;20618;-59
2022/09/06 11:34:04;;;;;;;4.47;2.58;;;;;;;;;;5028264;28;20037;-59
2022/09/06 11:36:37;;;;;;;3.88;2.25;;;;;;;;;;5031235;28;20021;-58
2022/09/06 11:39:05;;;;;;;4.93;2.85;;;;;;;;;;5022977;28;20413;-57
2022/09/06 11:41:49;;;;;;;4.50;2.40;;;;;;;;;;5030706;28;20477;-58
2022/09/06 11:44:35;;;;;;;5.07;2.63;;;;;;;;;;5024938;28;20018;-58
2022/09/06 11:47:01;;;;;;;2.92;2.05;;;;;;;;;;5019551;28;20080;-57
2022/09/06 11:49:36;;;;;;;5.55;2.20;;;;;;;;;;5032437;28;20041;-58
2022/09/06 11:52:02;;;;;;;4.97;2.95;;;;;;;;;;5033212;28;20045;-58
2022/09/06 11:54:41;;;;;;;8.95;4.03;;;;;;;;;;5035067;28;20481;-58
2022/09/06 11:57:07;;;;;;;5.38;3.70;;;;;;;;;;5035530;28;20064;-58
2022/09/06 11:59:48;;;;;;;8.15;3.72;;;;;;;;;;5030765;28;20038;-58
2022/09/06 12:02:34;;;;;;;10.40;3.50;;;;;;;;;;5030623;28;20026;-57
2022/09/06 12:05:00;;;;;;;4.78;2.95;;;;;;;;;;5035101;28;20063;-58
2022/09/06 12:07:29;;;;;;;5.47;3.00;;;;;;;;;;5035379;28;20030;-58
2022/09/06 12:09:56;;;;;;;9.68;2.95;;;;;;;;;;5035339;28;20033;-59
2022/09/06 12:12:40;;;;;;;4.85;2.38;;;;;;;;;;5035515;28;20049;-57
2022/09/06 12:15:25;;;;;;;7.60;2.97;;;;;;;;;;5030896;28;20034;-57
2022/09/06 12:17:51;;;;;;;7.03;2.80;;;;;;;;;;5025576;28;20037;-58
2022/09/06 12:20:35;;;;;;;3.60;2.65;;;;;;;;;;5017585;28;20345;-58
2022/09/06 12:23:02;;;;;;;7.57;3.00;;;;;;;;;;5026168;28;20438;-60
2022/09/06 12:25:34;;;;;;;6.38;2.70;;;;;;;;;;5032513;28;20481;-59
2022/09/06 12:28:04;;;;;;;7.13;3.08;;;;;;;;;;5031049;28;20138;-58
2022/09/06 12:30:32;;;;;;;6.93;2.97;;;;;;;;;;5031200;28;20409;-60
2022/09/06 12:32:58;;;;;;;6.35;2.63;;;;;;;;;;5026669;28;20042;-59
2022/09/06 12:35:26;;;;;;;7.47;2.58;;;;;;;;;;5030069;28;20026;-58
2022/09/06 12:37:56;;;;;;;5.55;2.42;;;;;;;;;;5033044;28;20025;-58
2022/09/06 12:40:23;;;;;;;5.80;2.17;;;;;;;;;;5023735;28;20104;-59
2022/09/06 12:42:50;;;;;;;7.80;2.38;;;;;;;;;;5033810;28;20092;-59
2022/09/06 12:45:17;;;;;;;6.88;2.10;;;;;;;;;;5034255;28;20021;-58
2022/09/06 12:47:44;;;;;;;6.43;2.30;;;;;;;;;;5023911;28;20022;-59
2022/09/06 12:50:17;;;;;;;4.97;2.13;;;;;;;;;;5028976;28;20492;-59
2022/09/06 12:52:55;;;;;;;5.28;2.03;;;;;;;;;;5034201;28;20060;-58
2022/09/06 12:55:24;;;;;;;3.90;2.15;;;;;;;;;;5034176;28;20432;-58
2022/09/06 12:57:55;;;;;;;4.57;2.20;;;;;;;;;;5033834;28;20071;-58
2022/09/06 13:00:22;;;;;;;4.15;2.28;;;;;;;;;;5032546;28;20030;-58
2022/09/06 13:02:57;;;;;;;3.35;2.05;;;;;;;;;;5033850;28;20583;-59
2022/09/06 13:05:23;;;;;;;6.35;2.78;;;;;;;;;;5032238;28;20030;-58
2022/09/06 13:07:53;;;;;;;5.32;2.55;;;;;;;;;;5033797;28;20029;-58
2022/09/06 13:10:21;;;;;;;5.88;1.95;;;;;;;;;;5033714;28;20033;-59
2022/09/06 13:12:49;;;;;;;3.33;2.40;;;;;;;;;;5034010;28;20552;-59
2022/09/06 13:15:29;;;;;;;3.03;2.10;;;;;;;;;;5049022;28;20036;-59
2022/09/06 13:18:15;;;;;;;4.03;2.60;;;;;;;;;;5033336;28;20022;-58
2022/09/06 13:20:41;;;;;;;5.88;2.22;;;;;;;;;;5029522;28;20512;-58
2022/09/06 13:23:09;;;;;;;4.05;2.20;;;;;;;;;;5033677;28;20018;-58
2022/09/06 13:25:46;;;;;;;4.40;2.30;;;;;;;;;;5033539;28;20064;-58
2022/09/06 13:28:22;;;;;;;5.32;1.90;;;;;;;;;;5033721;28;20097;-59
2022/09/06 13:31:02;;;;;;;7.80;2.60;;;;;;;;;;5033200;28;20418;-59
2022/09/06 13:33:28;;;;;;;3.97;1.77;;;;;;;;;;5033465;28;20053;-59
2022/09/06 13:36:08;;;;;;;6.00;2.33;;;;;;;;;;5047227;28;20092;-59
2022/09/06 13:38:37;;;;;;;5.22;2.03;;;;;;;;;;5025693;28;20676;-60
2022/09/06 13:41:04;;;;;;;7.00;1.88;;;;;;;;;;5028870;28;20029;-59
2022/09/06 13:43:33;;;;;;;4.63;2.28;;;;;;;;;;5023674;28;20048;-59
2022/09/06 13:46:04;;;;;;;4.65;1.98;;;;;;;;;;5027133;28;20087;-59
2022/09/06 13:48:30;;;;;;;5.38;2.13;;;;;;;;;;5029642;28;20097;-59
2022/09/06 13:50:56;;;;;;;4.03;2.03;;;;;;;;;;5019342;28;20040;-59
2022/09/06 13:53:22;;;;;;;3.00;1.83;;;;;;;;;;5033150;28;20397;-59
2022/09/06 13:55:48;;;;;;;2.58;1.90;;;;;;;;;;5036401;28;20129;-59
2022/09/06 13:58:14;;;;;;;4.85;1.80;;;;;;;;;;5033531;28;20041;-60
2022/09/06 14:00:40;;;;;;;4.85;2.30;;;;;;;;;;5020406;28;20034;-60
2022/09/06 14:03:06;;;;;;;2.25;2.00;;;;;;;;;;5027448;28;20075;-59
2022/09/06 14:05:37;;;;;;;2.55;1.67;;;;;;;;;;5032621;28;20168;-61
2022/09/06 14:08:03;;;;;;;3.13;1.70;;;;;;;;;;5024741;28;20022;-59
2022/09/06 14:10:29;;;;;;;3.85;1.77;;;;;;;;;;5033607;28;20021;-59
2022/09/06 14:12:55;;;;;;;3.67;1.80;;;;;;;;;;5026765;28;20113;-59
2022/09/06 14:15:22;;;;;;;7.60;2.22;;;;;;;;;;5034386;28;20485;-59
2022/09/06 14:17:48;;;;;;;7.43;2.45;;;;;;;;;;5022203;28;20036;-59
2022/09/06 14:20:14;;;;;;;3.55;1.77;;;;;;;;;;5026600;28;20377;-59
2022/09/06 14:22:40;;;;;;;5.65;2.30;;;;;;;;;;5021592;28;20076;-60
2022/09/06 14:25:06;;;;;;;2.42;1.73;;;;;;;;;;5028165;28;20029;-59
2022/09/06 14:27:34;;;;;;;4.93;1.90;;;;;;;;;;5021327;28;20022;-59
2022/09/06 14:30:00;;;;;;;4.32;2.10;;;;;;;;;;5028748;28;20350;-58
2022/09/06 14:32:26;;;;;;;5.63;1.98;;;;;;;;;;5017452;28;20025;-60
2022/09/06 14:34:52;;;;;;;5.78;2.22;;;;;;;;;;5031902;28;20037;-58
2022/09/06 14:37:18;;;;;;;6.75;1.98;;;;;;;;;;5031738;28;20038;-59
2022/09/06 14:39:44;;;;;;;3.47;2.15;;;;;;;;;;5030309;28;20266;-59
2022/09/06 14:42:10;;;;;;;2.55;1.80;;;;;;;;;;5031555;28;20025;-59
2022/09/06 14:44:36;;;;;;;3.47;1.80;;;;;;;;;;5025671;28;20032;-59
2022/09/06 14:47:02;;;;;;;5.15;1.80;;;;;;;;;;5025763;28;20021;-59
2022/09/06 14:49:28;;;;;;;3.20;2.10;;;;;;;;;;5023601;28;20101;-58
2022/09/06 14:51:54;;;;;;;2.45;1.90;;;;;;;;;;5026139;28;20041;-59
2022/09/06 14:54:20;;;;;;;4.20;1.92;;;;;;;;;;5027433;28;20037;-60